createdAt,value
2023-02-23T00:01:14.595Z,52.58
2023-02-23T00:06:18.246Z,49.58
2023-02-23T00:11:21.679Z,52.58
2023-02-23T00:16:25.587Z,49.00
2023-02-23T00:21:35.205Z,53.30
2023-02-23T00:26:39.176Z,50.63
2023-02-23T00:31:40.911Z,52.83
2023-02-23T00:36:43.009Z,52.15
2023-02-23T00:41:46.660Z,49.58
2023-02-23T00:46:51.135Z,52.22
2023-02-23T00:51:52.982Z,48.50
2023-02-23T00:56:54.644Z,47.97
2023-02-23T01:01:57.646Z,51.45
2023-02-23T01:06:59.317Z,46.20
2023-02-23T01:12:02.388Z,47.55
2023-02-23T01:17:04.194Z,51.45
2023-02-23T01:22:05.883Z,49.83
2023-02-23T01:27:07.549Z,44.65
2023-02-23T01:32:09.207Z,47.10
2023-02-23T01:37:10.915Z,44.97
2023-02-23T01:42:15.757Z,48.97
2023-02-23T01:47:20.366Z,46.55
2023-02-23T01:52:22.098Z,49.33
2023-02-23T01:57:25.099Z,48.15
2023-02-23T02:02:33.643Z,49.60
2023-02-23T02:07:36.625Z,51.70
2023-02-23T02:12:39.523Z,47.78
2023-02-23T02:17:53.617Z,48.85
2023-02-23T02:22:55.185Z,45.47
2023-02-23T02:28:18.021Z,48.53
2023-02-23T02:33:45.897Z,44.60
2023-02-23T02:38:59.372Z,46.63
2023-02-23T02:44:15.203Z,46.42
2023-02-23T02:49:26.727Z,41.42
2023-02-23T02:54:34.431Z,41.67
2023-02-23T03:00:06.634Z,44.17
2023-02-23T03:05:39.255Z,44.42
2023-02-23T03:11:09.062Z,46.25
2023-02-23T03:16:38.920Z,41.33
2023-02-23T03:22:09.573Z,44.97
2023-02-23T03:27:42.600Z,41.28
2023-02-23T03:33:11.095Z,40.85
2023-02-23T03:38:39.282Z,42.55
2023-02-23T03:44:09.930Z,44.15
2023-02-23T03:54:59.493Z,42.33
2023-02-23T04:00:24.822Z,47.33
2023-02-23T04:05:47.077Z,43.55
2023-02-23T04:11:21.549Z,46.10
2023-02-23T04:16:23.326Z,41.13
2023-02-23T04:21:25.232Z,43.53
2023-02-23T04:26:26.823Z,41.38
2023-02-23T04:31:28.441Z,44.58
2023-02-23T04:36:30.401Z,39.90
2023-02-23T04:41:32.036Z,44.00
2023-02-23T04:46:33.726Z,43.17
2023-02-23T04:51:36.630Z,41.67
2023-02-23T04:56:39.443Z,43.15
2023-02-23T05:01:41.147Z,46.15
2023-02-23T05:06:42.980Z,43.63
2023-02-23T05:11:44.590Z,48.53
2023-02-23T05:16:46.172Z,43.25
2023-02-23T05:21:50.148Z,43.17
2023-02-23T05:26:51.858Z,47.75
2023-02-23T05:31:53.515Z,48.65
2023-02-23T05:36:55.266Z,42.90
2023-02-23T05:41:56.875Z,47.42
2023-02-23T05:46:58.538Z,44.92
2023-02-23T05:52:00.463Z,47.95
2023-02-23T05:57:02.103Z,47.53
2023-02-23T06:02:06.026Z,44.13
2023-02-23T06:07:07.878Z,49.42
2023-02-23T06:12:09.560Z,44.72
2023-02-23T06:17:11.246Z,39.70
2023-02-23T06:22:13.075Z,34.53
2023-02-23T06:27:31.563Z,37.13
2023-02-23T06:32:33.232Z,34.33
2023-02-23T06:37:37.336Z,32.90
2023-02-23T06:42:38.927Z,34.08
2023-02-23T06:47:41.093Z,30.83
2023-02-23T06:52:42.875Z,30.40
2023-02-23T06:57:44.862Z,31.92
2023-02-23T07:02:46.595Z,29.95
2023-02-23T07:07:48.324Z,23.45
2023-02-23T07:12:49.985Z,23.15
2023-02-23T07:17:52.894Z,20.75
2023-02-23T07:22:54.988Z,20.27
2023-02-23T07:27:59.048Z,18.83
2023-02-23T07:33:00.925Z,16.90
2023-02-23T07:38:02.574Z,18.60
2023-02-23T07:43:04.298Z,18.70
2023-02-23T07:48:06.109Z,15.45
2023-02-23T07:53:07.964Z,13.20
2023-02-23T07:58:09.868Z,15.10
2023-02-23T08:03:11.673Z,13.05
2023-02-23T08:08:13.617Z,17.83
2023-02-23T08:13:17.512Z,15.75
2023-02-23T08:18:19.259Z,15.13
2023-02-23T08:23:20.983Z,17.10
2023-02-23T08:28:23.222Z,20.80
2023-02-23T08:33:24.968Z,20.02
2023-02-23T08:38:26.572Z,21.60
2023-02-23T08:43:29.207Z,17.95
2023-02-23T08:48:30.809Z,19.42
2023-02-23T08:53:32.730Z,16.30
2023-02-23T08:58:35.790Z,22.23
2023-02-23T09:03:39.737Z,15.85
2023-02-23T09:08:42.276Z,17.48
2023-02-23T09:13:44.753Z,16.63
2023-02-23T09:18:46.540Z,15.00
2023-02-23T09:23:51.132Z,16.05
2023-02-23T09:28:52.737Z,21.15
2023-02-23T09:33:55.141Z,22.73
2023-02-23T09:38:57.752Z,30.45
2023-02-23T09:44:12.603Z,32.30
2023-02-23T09:49:19.809Z,29.98
2023-02-23T09:54:24.247Z,38.50
2023-02-23T09:59:26.162Z,42.83
2023-02-23T10:04:32.710Z,40.30
2023-02-23T10:10:08.547Z,40.80
2023-02-23T10:15:28.746Z,44.60
2023-02-23T10:21:01.299Z,43.42
2023-02-23T10:26:07.710Z,39.97
2023-02-23T10:31:24.466Z,41.72
2023-02-23T10:36:39.457Z,34.55
2023-02-23T10:41:42.981Z,25.98
2023-02-23T10:46:49.903Z,28.45
2023-02-23T10:51:58.240Z,29.42
2023-02-23T10:57:00.100Z,31.05
2023-02-23T11:02:22.816Z,40.28
2023-02-23T11:07:31.134Z,34.88
2023-02-23T11:12:41.890Z,39.42
2023-02-23T11:17:43.598Z,37.10
2023-02-23T11:22:45.741Z,41.10
2023-02-23T11:27:51.640Z,46.25
2023-02-23T11:32:57.398Z,40.75
2023-02-23T11:37:59.320Z,49.08
2023-02-23T11:43:09.980Z,44.20
2023-02-23T11:48:27.105Z,37.35
2023-02-23T11:53:34.922Z,33.10
2023-02-23T11:58:40.289Z,34.20
2023-02-23T12:03:51.696Z,28.58
2023-02-23T12:08:56.957Z,30.85
2023-02-23T12:14:03.826Z,28.27
2023-02-23T12:19:32.992Z,23.10
2023-02-23T12:24:34.677Z,24.02
2023-02-23T12:29:39.401Z,28.95
2023-02-23T12:34:53.098Z,27.17
2023-02-23T12:40:23.678Z,27.88
2023-02-23T12:45:37.761Z,26.30
2023-02-23T12:50:45.851Z,27.58
2023-02-23T12:56:14.655Z,24.25
2023-02-23T13:01:34.546Z,25.98
2023-02-23T13:06:50.871Z,26.98
2023-02-23T13:12:06.803Z,28.95
2023-02-23T13:17:25.670Z,21.88
2023-02-23T13:22:33.706Z,31.17
2023-02-23T13:27:46.082Z,22.48
2023-02-23T13:32:47.935Z,18.10
2023-02-23T13:38:01.741Z,17.58
2023-02-23T13:43:18.730Z,13.00
2023-02-23T13:48:35.142Z,10.43
2023-02-23T13:53:41.684Z,7.07
2023-02-23T13:58:54.124Z,9.25
2023-02-23T14:04:04.780Z,8.23
2023-02-23T14:09:23.835Z,7.70
2023-02-23T14:14:31.846Z,8.90
2023-02-23T14:19:40.937Z,8.75
2023-02-23T14:24:42.629Z,7.27
2023-02-23T14:30:05.289Z,13.25
2023-02-23T14:35:32.434Z,11.73
2023-02-23T14:40:40.884Z,15.90
2023-02-23T14:45:44.377Z,10.38
2023-02-23T14:50:45.983Z,8.15
2023-02-23T14:55:48.693Z,8.48
2023-02-23T15:00:52.082Z,17.50
2023-02-23T15:05:59.662Z,14.65
2023-02-23T15:11:05.851Z,14.65
2023-02-23T15:16:14.267Z,16.63
2023-02-23T15:21:19.895Z,27.13
2023-02-23T15:26:48.059Z,16.77
2023-02-23T15:31:53.179Z,20.45
2023-02-23T15:37:03.001Z,20.20
2023-02-23T15:42:06.510Z,21.52
2023-02-23T15:47:18.070Z,24.20
2023-02-23T15:52:24.484Z,34.55
2023-02-23T15:57:48.285Z,26.67
2023-02-23T16:02:50.652Z,17.60
2023-02-23T16:08:06.310Z,19.42
2023-02-23T16:13:08.083Z,20.42
2023-02-23T16:18:17.707Z,20.80
2023-02-23T16:23:44.600Z,24.33
2023-02-23T16:28:47.074Z,20.00
2023-02-23T16:33:57.056Z,15.05
2023-02-23T16:39:02.166Z,12.35
2023-02-23T16:44:06.253Z,14.38
2023-02-23T16:49:12.331Z,10.20
2023-02-23T16:54:14.010Z,15.15
2023-02-23T16:59:18.690Z,19.25
2023-02-23T17:04:20.906Z,13.38
2023-02-23T17:09:24.248Z,15.35
2023-02-23T17:14:31.985Z,12.48
2023-02-23T17:19:33.764Z,14.68
2023-02-23T17:24:35.574Z,11.68
2023-02-23T17:29:37.257Z,12.10
2023-02-23T17:34:39.048Z,12.27
2023-02-23T17:39:41.061Z,8.10
2023-02-23T17:44:42.765Z,10.52
2023-02-23T17:49:44.443Z,10.77
2023-02-23T17:54:46.285Z,11.52
2023-02-23T17:59:47.983Z,15.48
2023-02-23T18:04:50.605Z,8.82
2023-02-23T18:09:52.587Z,15.20
2023-02-23T18:14:54.270Z,22.33
2023-02-23T18:19:56.027Z,10.38
2023-02-23T18:24:58.247Z,10.57
2023-02-23T18:29:59.898Z,10.52
2023-02-23T18:35:01.573Z,12.32
2023-02-23T18:40:04.933Z,10.70
2023-02-23T18:45:08.146Z,26.10
2023-02-23T18:50:12.663Z,9.35
2023-02-23T18:55:15.367Z,12.02
2023-02-23T19:00:18.471Z,10.85
2023-02-23T19:05:21.967Z,15.82
2023-02-23T19:10:23.777Z,13.27
2023-02-23T19:15:25.387Z,9.05
2023-02-23T19:20:32.544Z,17.70
2023-02-23T19:25:34.337Z,12.48
2023-02-23T19:30:35.960Z,18.13
2023-02-23T19:35:41.504Z,8.73
2023-02-23T19:40:43.150Z,10.70
2023-02-23T19:45:48.950Z,13.10
2023-02-23T19:50:51.668Z,17.52
2023-02-23T19:56:05.968Z,12.43
2023-02-23T20:01:10.325Z,16.98
2023-02-23T20:06:13.648Z,14.52
2023-02-23T20:11:15.714Z,15.68
2023-02-23T20:16:17.610Z,20.20
2023-02-23T20:21:23.479Z,20.15
2023-02-23T20:26:30.962Z,13.70
2023-02-23T20:31:35.721Z,21.05
2023-02-23T20:36:37.688Z,17.73
2023-02-23T20:41:43.308Z,18.80
2023-02-23T20:46:45.126Z,14.35
2023-02-23T20:51:48.649Z,14.88
2023-02-23T20:56:58.918Z,18.23
2023-02-23T21:02:01.672Z,17.20
2023-02-23T21:07:07.753Z,38.08
2023-02-23T21:12:13.930Z,7.95
2023-02-23T21:17:15.757Z,15.82
2023-02-23T21:22:17.883Z,18.23
2023-02-23T21:27:19.613Z,10.70
2023-02-23T21:32:22.603Z,15.40
2023-02-23T21:37:24.324Z,14.23
2023-02-23T21:42:26.601Z,12.65
2023-02-23T21:47:28.193Z,12.27
2023-02-23T21:52:31.454Z,9.13
2023-02-23T21:57:33.292Z,7.80
2023-02-23T22:02:37.696Z,7.13
2023-02-23T22:07:39.470Z,16.10
2023-02-23T22:12:41.074Z,18.25
2023-02-23T22:17:43.788Z,7.38
2023-02-23T22:22:45.616Z,9.48
2023-02-23T22:27:47.364Z,8.20
2023-02-23T22:32:49.159Z,5.20
2023-02-23T22:37:50.972Z,8.38
2023-02-23T22:42:54.594Z,5.75
2023-02-23T22:48:01.474Z,12.73
2023-02-23T22:53:04.241Z,5.90
2023-02-23T22:58:09.277Z,8.10
2023-02-23T23:03:13.143Z,8.35
2023-02-23T23:08:15.305Z,6.03
2023-02-23T23:13:17.616Z,4.93
2023-02-23T23:18:20.826Z,6.45
2023-02-23T23:23:26.099Z,5.40
2023-02-23T23:28:28.627Z,8.02
2023-02-23T23:33:30.635Z,7.55
2023-02-23T23:38:32.972Z,6.55
2023-02-23T23:43:36.991Z,6.30
2023-02-23T23:48:39.317Z,4.70
2023-02-23T23:53:40.913Z,4.50
2023-02-23T23:58:42.481Z,6.00
